sensor_id;sensor_type;location;lat;lon;timestamp;P1;durP1;ratioP1;P2;durP2;ratioP2
12469;SDS011;36499;46.484;13.832;2023-06-19T00:00:44;7.83;;;7.03;;
12469;SDS011;36499;46.484;13.832;2023-06-19T00:03:11;7.20;;;6.50;;
12469;SDS011;36499;46.484;13.832;2023-06-19T00:05:38;7.50;;;6.80;;
12469;SDS011;36499;46.484;13.832;2023-06-19T00:08:05;7.37;;;6.67;;
12469;SDS011;36499;46.484;13.832;2023-06-19T00:10:33;8.70;;;6.90;;
12469;SDS011;36499;46.484;13.832;2023-06-19T00:13:00;9.87;;;7.20;;
12469;SDS011;36499;46.484;13.832;2023-06-19T00:15:29;8.20;;;7.07;;
12469;SDS011;36499;46.484;13.832;2023-06-19T00:17:56;7.90;;;6.97;;
12469;SDS011;36499;46.484;13.832;2023-06-19T00:20:23;8.60;;;6.70;;
12469;SDS011;36499;46.484;13.832;2023-06-19T00:22:50;10.17;;;6.90;;
12469;SDS011;36499;46.484;13.832;2023-06-19T00:25:18;7.63;;;6.93;;
12469;SDS011;36499;46.484;13.832;2023-06-19T00:27:45;7.53;;;6.67;;
12469;SDS011;36499;46.484;13.832;2023-06-19T00:30:13;7.17;;;6.47;;
12469;SDS011;36499;46.484;13.832;2023-06-19T00:32:42;7.83;;;6.43;;
12469;SDS011;36499;46.484;13.832;2023-06-19T00:35:12;7.83;;;6.70;;
12469;SDS011;36499;46.484;13.832;2023-06-19T00:37:40;8.27;;;6.43;;
12469;SDS011;36499;46.484;13.832;2023-06-19T00:40:11;6.80;;;6.00;;
12469;SDS011;36499;46.484;13.832;2023-06-19T00:42:46;7.63;;;6.57;;
12469;SDS011;36499;46.484;13.832;2023-06-19T00:45:13;7.13;;;6.43;;
12469;SDS011;36499;46.484;13.832;2023-06-19T00:47:42;7.53;;;6.73;;
12469;SDS011;36499;46.484;13.832;2023-06-19T00:50:10;9.30;;;6.87;;
12469;SDS011;36499;46.484;13.832;2023-06-19T00:52:37;7.30;;;6.40;;
12469;SDS011;36499;46.484;13.832;2023-06-19T00:55:05;7.50;;;6.70;;
12469;SDS011;36499;46.484;13.832;2023-06-19T00:57:34;7.63;;;6.43;;
12469;SDS011;36499;46.484;13.832;2023-06-19T01:00:02;8.33;;;7.53;;
12469;SDS011;36499;46.484;13.832;2023-06-19T01:02:32;7.70;;;6.90;;
12469;SDS011;36499;46.484;13.832;2023-06-19T01:05:01;7.40;;;6.70;;
12469;SDS011;36499;46.484;13.832;2023-06-19T01:10:19;9.27;;;6.50;;
12469;SDS011;36499;46.484;13.832;2023-06-19T01:12:52;8.30;;;6.93;;
12469;SDS011;36499;46.484;13.832;2023-06-19T01:15:25;7.40;;;6.30;;
12469;SDS011;36499;46.484;13.832;2023-06-19T01:17:53;6.77;;;6.03;;
12469;SDS011;36499;46.484;13.832;2023-06-19T01:22:55;7.27;;;6.57;;
12469;SDS011;36499;46.484;13.832;2023-06-19T01:25:23;8.43;;;7.63;;
12469;SDS011;36499;46.484;13.832;2023-06-19T01:27:50;7.47;;;6.67;;
12469;SDS011;36499;46.484;13.832;2023-06-19T01:30:18;7.63;;;6.73;;
12469;SDS011;36499;46.484;13.832;2023-06-19T01:32:47;7.13;;;6.43;;
12469;SDS011;36499;46.484;13.832;2023-06-19T01:35:23;7.93;;;6.50;;
12469;SDS011;36499;46.484;13.832;2023-06-19T01:37:55;7.37;;;6.67;;
12469;SDS011;36499;46.484;13.832;2023-06-19T01:40:25;7.50;;;6.70;;
12469;SDS011;36499;46.484;13.832;2023-06-19T01:42:56;7.87;;;6.73;;
12469;SDS011;36499;46.484;13.832;2023-06-19T01:45:26;8.57;;;7.10;;
12469;SDS011;36499;46.484;13.832;2023-06-19T01:47:55;7.87;;;6.50;;
12469;SDS011;36499;46.484;13.832;2023-06-19T01:50:22;7.60;;;6.77;;
12469;SDS011;36499;46.484;13.832;2023-06-19T01:52:50;7.40;;;6.60;;
12469;SDS011;36499;46.484;13.832;2023-06-19T01:55:19;7.77;;;7.07;;
12469;SDS011;36499;46.484;13.832;2023-06-19T01:57:47;8.43;;;7.13;;
12469;SDS011;36499;46.484;13.832;2023-06-19T02:00:14;7.60;;;6.90;;
12469;SDS011;36499;46.484;13.832;2023-06-19T02:02:42;7.67;;;6.90;;
12469;SDS011;36499;46.484;13.832;2023-06-19T02:05:09;7.77;;;7.07;;
12469;SDS011;36499;46.484;13.832;2023-06-19T02:07:38;8.87;;;6.93;;
12469;SDS011;36499;46.484;13.832;2023-06-19T02:10:05;10.77;;;7.33;;
12469;SDS011;36499;46.484;13.832;2023-06-19T02:12:35;6.93;;;6.23;;
12469;SDS011;36499;46.484;13.832;2023-06-19T02:15:02;10.40;;;7.63;;
12469;SDS011;36499;46.484;13.832;2023-06-19T02:17:30;8.33;;;7.20;;
12469;SDS011;36499;46.484;13.832;2023-06-19T02:19:57;9.50;;;6.90;;
12469;SDS011;36499;46.484;13.832;2023-06-19T02:22:24;8.17;;;7.37;;
12469;SDS011;36499;46.484;13.832;2023-06-19T02:24:51;7.60;;;6.90;;
12469;SDS011;36499;46.484;13.832;2023-06-19T02:27:18;8.63;;;6.80;;
12469;SDS011;36499;46.484;13.832;2023-06-19T02:29:47;8.60;;;7.73;;
12469;SDS011;36499;46.484;13.832;2023-06-19T02:32:14;8.53;;;7.40;;
12469;SDS011;36499;46.484;13.832;2023-06-19T02:34:41;7.97;;;7.20;;
12469;SDS011;36499;46.484;13.832;2023-06-19T02:37:08;8.33;;;7.40;;
12469;SDS011;36499;46.484;13.832;2023-06-19T02:39:35;8.00;;;7.20;;
12469;SDS011;36499;46.484;13.832;2023-06-19T02:42:03;7.43;;;6.73;;
12469;SDS011;36499;46.484;13.832;2023-06-19T02:44:31;7.53;;;6.83;;
12469;SDS011;36499;46.484;13.832;2023-06-19T02:46:59;7.87;;;7.07;;
12469;SDS011;36499;46.484;13.832;2023-06-19T02:49:26;7.77;;;6.93;;
12469;SDS011;36499;46.484;13.832;2023-06-19T02:51:53;8.73;;;7.67;;
12469;SDS011;36499;46.484;13.832;2023-06-19T02:54:21;9.70;;;7.37;;
12469;SDS011;36499;46.484;13.832;2023-06-19T02:56:48;7.50;;;6.77;;
12469;SDS011;36499;46.484;13.832;2023-06-19T02:59:15;7.93;;;7.13;;
12469;SDS011;36499;46.484;13.832;2023-06-19T03:01:43;8.37;;;7.43;;
12469;SDS011;36499;46.484;13.832;2023-06-19T03:04:11;9.00;;;7.57;;
12469;SDS011;36499;46.484;13.832;2023-06-19T03:06:38;10.07;;;7.17;;
12469;SDS011;36499;46.484;13.832;2023-06-19T03:09:06;8.33;;;7.53;;
12469;SDS011;36499;46.484;13.832;2023-06-19T03:11:37;7.70;;;7.00;;
12469;SDS011;36499;46.484;13.832;2023-06-19T03:14:05;8.60;;;7.40;;
12469;SDS011;36499;46.484;13.832;2023-06-19T03:16:34;8.57;;;7.77;;
12469;SDS011;36499;46.484;13.832;2023-06-19T03:19:01;8.37;;;7.37;;
12469;SDS011;36499;46.484;13.832;2023-06-19T03:21:30;7.87;;;6.97;;
12469;SDS011;36499;46.484;13.832;2023-06-19T03:23:57;9.30;;;7.97;;
12469;SDS011;36499;46.484;13.832;2023-06-19T03:26:24;9.33;;;7.67;;
12469;SDS011;36499;46.484;13.832;2023-06-19T03:28:51;7.87;;;7.10;;
12469;SDS011;36499;46.484;13.832;2023-06-19T03:31:18;8.27;;;7.47;;
12469;SDS011;36499;46.484;13.832;2023-06-19T03:33:45;8.30;;;7.50;;
12469;SDS011;36499;46.484;13.832;2023-06-19T03:36:12;9.20;;;7.40;;
12469;SDS011;36499;46.484;13.832;2023-06-19T03:38:41;8.53;;;7.63;;
12469;SDS011;36499;46.484;13.832;2023-06-19T03:41:08;8.07;;;7.30;;
12469;SDS011;36499;46.484;13.832;2023-06-19T03:43:35;9.10;;;7.80;;
12469;SDS011;36499;46.484;13.832;2023-06-19T03:46:02;8.33;;;7.40;;
12469;SDS011;36499;46.484;13.832;2023-06-19T03:48:29;7.87;;;7.00;;
12469;SDS011;36499;46.484;13.832;2023-06-19T03:50:56;8.50;;;7.70;;
12469;SDS011;36499;46.484;13.832;2023-06-19T03:53:25;8.40;;;7.60;;
12469;SDS011;36499;46.484;13.832;2023-06-19T03:55:54;11.00;;;8.83;;
12469;SDS011;36499;46.484;13.832;2023-06-19T03:58:21;8.13;;;7.30;;
12469;SDS011;36499;46.484;13.832;2023-06-19T04:00:48;8.43;;;7.60;;
12469;SDS011;36499;46.484;13.832;2023-06-19T04:03:15;8.87;;;8.07;;
12469;SDS011;36499;46.484;13.832;2023-06-19T04:05:42;8.90;;;8.13;;
12469;SDS011;36499;46.484;13.832;2023-06-19T04:08:09;9.70;;;8.70;;
12469;SDS011;36499;46.484;13.832;2023-06-19T04:10:36;8.17;;;7.47;;
12469;SDS011;36499;46.484;13.832;2023-06-19T04:13:04;9.17;;;8.23;;
12469;SDS011;36499;46.484;13.832;2023-06-19T04:15:32;8.83;;;8.03;;
12469;SDS011;36499;46.484;13.832;2023-06-19T04:18:00;9.43;;;8.53;;
12469;SDS011;36499;46.484;13.832;2023-06-19T04:20:28;9.60;;;8.70;;
12469;SDS011;36499;46.484;13.832;2023-06-19T04:22:55;10.43;;;9.33;;
12469;SDS011;36499;46.484;13.832;2023-06-19T04:25:22;10.60;;;8.80;;
12469;SDS011;36499;46.484;13.832;2023-06-19T04:27:49;9.23;;;7.43;;
12469;SDS011;36499;46.484;13.832;2023-06-19T04:30:18;9.40;;;8.50;;
12469;SDS011;36499;46.484;13.832;2023-06-19T04:32:46;12.77;;;9.10;;
12469;SDS011;36499;46.484;13.832;2023-06-19T04:35:13;9.40;;;8.40;;
12469;SDS011;36499;46.484;13.832;2023-06-19T04:37:40;9.63;;;8.63;;
12469;SDS011;36499;46.484;13.832;2023-06-19T04:40:07;10.73;;;9.20;;
12469;SDS011;36499;46.484;13.832;2023-06-19T04:42:36;12.10;;;9.90;;
12469;SDS011;36499;46.484;13.832;2023-06-19T04:45:04;11.13;;;9.63;;
12469;SDS011;36499;46.484;13.832;2023-06-19T04:47:34;12.87;;;10.17;;
12469;SDS011;36499;46.484;13.832;2023-06-19T04:50:01;10.87;;;9.80;;
12469;SDS011;36499;46.484;13.832;2023-06-19T04:52:28;11.20;;;10.10;;
12469;SDS011;36499;46.484;13.832;2023-06-19T04:54:58;11.17;;;9.57;;
12469;SDS011;36499;46.484;13.832;2023-06-19T04:57:25;11.63;;;9.83;;
12469;SDS011;36499;46.484;13.832;2023-06-19T04:59:52;15.73;;;10.13;;
12469;SDS011;36499;46.484;13.832;2023-06-19T05:02:19;11.83;;;9.53;;
12469;SDS011;36499;46.484;13.832;2023-06-19T05:04:47;10.27;;;9.13;;
12469;SDS011;36499;46.484;13.832;2023-06-19T05:07:14;10.23;;;9.10;;
12469;SDS011;36499;46.484;13.832;2023-06-19T05:09:43;14.00;;;8.93;;
12469;SDS011;36499;46.484;13.832;2023-06-19T05:12:10;11.87;;;8.77;;
12469;SDS011;36499;46.484;13.832;2023-06-19T05:14:37;10.50;;;8.93;;
12469;SDS011;36499;46.484;13.832;2023-06-19T05:17:05;11.03;;;9.90;;
12469;SDS011;36499;46.484;13.832;2023-06-19T05:19:34;11.07;;;9.07;;
12469;SDS011;36499;46.484;13.832;2023-06-19T05:22:02;9.83;;;8.80;;
12469;SDS011;36499;46.484;13.832;2023-06-19T05:24:31;9.77;;;8.70;;
12469;SDS011;36499;46.484;13.832;2023-06-19T05:26:58;12.77;;;8.63;;
12469;SDS011;36499;46.484;13.832;2023-06-19T05:29:25;10.60;;;9.53;;
12469;SDS011;36499;46.484;13.832;2023-06-19T05:31:53;10.37;;;9.37;;
12469;SDS011;36499;46.484;13.832;2023-06-19T05:34:20;9.83;;;8.83;;
12469;SDS011;36499;46.484;13.832;2023-06-19T05:36:47;12.70;;;9.53;;
12469;SDS011;36499;46.484;13.832;2023-06-19T05:39:16;11.63;;;9.37;;
12469;SDS011;36499;46.484;13.832;2023-06-19T05:41:44;10.10;;;9.10;;
12469;SDS011;36499;46.484;13.832;2023-06-19T05:44:11;10.00;;;9.00;;
12469;SDS011;36499;46.484;13.832;2023-06-19T05:46:41;10.27;;;8.90;;
12469;SDS011;36499;46.484;13.832;2023-06-19T05:49:08;10.07;;;9.07;;
12469;SDS011;36499;46.484;13.832;2023-06-19T05:51:35;10.53;;;8.50;;
12469;SDS011;36499;46.484;13.832;2023-06-19T05:54:02;13.97;;;9.17;;
12469;SDS011;36499;46.484;13.832;2023-06-19T05:56:30;10.23;;;9.07;;
12469;SDS011;36499;46.484;13.832;2023-06-19T05:58:58;10.07;;;9.07;;
12469;SDS011;36499;46.484;13.832;2023-06-19T06:01:26;10.10;;;9.10;;
12469;SDS011;36499;46.484;13.832;2023-06-19T06:03:53;10.33;;;9.23;;
12469;SDS011;36499;46.484;13.832;2023-06-19T06:06:20;12.17;;;9.50;;
12469;SDS011;36499;46.484;13.832;2023-06-19T06:08:49;9.83;;;8.83;;
12469;SDS011;36499;46.484;13.832;2023-06-19T06:11:17;11.33;;;9.93;;
12469;SDS011;36499;46.484;13.832;2023-06-19T06:13:46;11.00;;;9.27;;
12469;SDS011;36499;46.484;13.832;2023-06-19T06:16:13;10.40;;;8.93;;
12469;SDS011;36499;46.484;13.832;2023-06-19T06:18:40;10.47;;;9.47;;
12469;SDS011;36499;46.484;13.832;2023-06-19T06:21:07;12.10;;;9.37;;
12469;SDS011;36499;46.484;13.832;2023-06-19T06:23:34;14.30;;;9.33;;
12469;SDS011;36499;46.484;13.832;2023-06-19T06:26:01;10.20;;;9.20;;
12469;SDS011;36499;46.484;13.832;2023-06-19T06:28:29;10.23;;;8.50;;
12469;SDS011;36499;46.484;13.832;2023-06-19T06:30:58;9.20;;;8.30;;
12469;SDS011;36499;46.484;13.832;2023-06-19T06:33:25;10.10;;;9.00;;
12469;SDS011;36499;46.484;13.832;2023-06-19T06:35:54;9.40;;;8.60;;
12469;SDS011;36499;46.484;13.832;2023-06-19T06:38:21;11.23;;;9.00;;
12469;SDS011;36499;46.484;13.832;2023-06-19T06:40:48;9.10;;;8.20;;
12469;SDS011;36499;46.484;13.832;2023-06-19T06:43:16;11.30;;;8.53;;
12469;SDS011;36499;46.484;13.832;2023-06-19T06:45:43;10.63;;;8.53;;
12469;SDS011;36499;46.484;13.832;2023-06-19T06:48:11;10.23;;;9.23;;
12469;SDS011;36499;46.484;13.832;2023-06-19T06:50:38;10.43;;;9.47;;
12469;SDS011;36499;46.484;13.832;2023-06-19T06:53:06;10.73;;;9.63;;
12469;SDS011;36499;46.484;13.832;2023-06-19T06:55:33;10.13;;;8.90;;
12469;SDS011;36499;46.484;13.832;2023-06-19T06:58:00;10.30;;;9.30;;
12469;SDS011;36499;46.484;13.832;2023-06-19T07:00:28;11.73;;;9.37;;
12469;SDS011;36499;46.484;13.832;2023-06-19T07:02:55;9.30;;;8.17;;
12469;SDS011;36499;46.484;13.832;2023-06-19T07:05:23;9.57;;;8.47;;
12469;SDS011;36499;46.484;13.832;2023-06-19T07:07:50;12.03;;;8.97;;
12469;SDS011;36499;46.484;13.832;2023-06-19T07:10:17;11.90;;;8.97;;
12469;SDS011;36499;46.484;13.832;2023-06-19T07:12:45;11.03;;;8.47;;
12469;SDS011;36499;46.484;13.832;2023-06-19T07:15:14;8.93;;;8.03;;
12469;SDS011;36499;46.484;13.832;2023-06-19T07:17:41;9.13;;;8.33;;
12469;SDS011;36499;46.484;13.832;2023-06-19T07:20:09;9.20;;;8.33;;
12469;SDS011;36499;46.484;13.832;2023-06-19T07:22:38;9.97;;;8.40;;
12469;SDS011;36499;46.484;13.832;2023-06-19T07:25:06;9.77;;;8.03;;
12469;SDS011;36499;46.484;13.832;2023-06-19T07:27:36;15.27;;;8.50;;
12469;SDS011;36499;46.484;13.832;2023-06-19T07:30:03;9.60;;;8.70;;
12469;SDS011;36499;46.484;13.832;2023-06-19T07:32:33;11.67;;;8.83;;
12469;SDS011;36499;46.484;13.832;2023-06-19T07:35:00;9.40;;;8.17;;
12469;SDS011;36499;46.484;13.832;2023-06-19T07:37:27;9.67;;;8.03;;
12469;SDS011;36499;46.484;13.832;2023-06-19T07:39:55;12.03;;;8.43;;
12469;SDS011;36499;46.484;13.832;2023-06-19T07:42:22;8.63;;;7.83;;
12469;SDS011;36499;46.484;13.832;2023-06-19T07:44:49;9.77;;;7.97;;
12469;SDS011;36499;46.484;13.832;2023-06-19T07:47:16;10.80;;;8.27;;
12469;SDS011;36499;46.484;13.832;2023-06-19T07:49:45;11.23;;;7.93;;
12469;SDS011;36499;46.484;13.832;2023-06-19T07:52:13;9.07;;;8.17;;
12469;SDS011;36499;46.484;13.832;2023-06-19T07:54:53;9.23;;;8.33;;
12469;SDS011;36499;46.484;13.832;2023-06-19T07:57:24;8.80;;;8.00;;
12469;SDS011;36499;46.484;13.832;2023-06-19T07:59:52;8.70;;;7.87;;
12469;SDS011;36499;46.484;13.832;2023-06-19T08:02:20;8.50;;;7.70;;
12469;SDS011;36499;46.484;13.832;2023-06-19T08:04:47;9.03;;;8.13;;
12469;SDS011;36499;46.484;13.832;2023-06-19T08:07:15;9.03;;;8.00;;
12469;SDS011;36499;46.484;13.832;2023-06-19T08:09:42;8.67;;;7.87;;
12469;SDS011;36499;46.484;13.832;2023-06-19T08:12:10;9.03;;;8.13;;
12469;SDS011;36499;46.484;13.832;2023-06-19T08:14:37;8.87;;;7.60;;
12469;SDS011;36499;46.484;13.832;2023-06-19T08:17:05;8.33;;;7.53;;
12469;SDS011;36499;46.484;13.832;2023-06-19T08:19:32;7.97;;;7.20;;
12469;SDS011;36499;46.484;13.832;2023-06-19T08:21:59;8.07;;;7.27;;
12469;SDS011;36499;46.484;13.832;2023-06-19T08:24:27;9.03;;;7.50;;
12469;SDS011;36499;46.484;13.832;2023-06-19T08:26:55;9.70;;;7.47;;
12469;SDS011;36499;46.484;13.832;2023-06-19T08:29:23;8.27;;;7.47;;
12469;SDS011;36499;46.484;13.832;2023-06-19T08:31:50;8.37;;;7.57;;
12469;SDS011;36499;46.484;13.832;2023-06-19T08:34:17;7.73;;;6.87;;
12469;SDS011;36499;46.484;13.832;2023-06-19T08:36:44;7.27;;;6.57;;
12469;SDS011;36499;46.484;13.832;2023-06-19T08:39:11;9.60;;;7.47;;
12469;SDS011;36499;46.484;13.832;2023-06-19T08:41:38;8.40;;;7.60;;
12469;SDS011;36499;46.484;13.832;2023-06-19T08:44:06;7.97;;;7.17;;
12469;SDS011;36499;46.484;13.832;2023-06-19T08:46:36;8.57;;;7.70;;
12469;SDS011;36499;46.484;13.832;2023-06-19T08:49:03;9.17;;;7.23;;
12469;SDS011;36499;46.484;13.832;2023-06-19T08:51:31;7.90;;;7.10;;
12469;SDS011;36499;46.484;13.832;2023-06-19T08:54:00;8.23;;;7.43;;
12469;SDS011;36499;46.484;13.832;2023-06-19T08:56:29;8.57;;;7.77;;
12469;SDS011;36499;46.484;13.832;2023-06-19T08:59:07;8.50;;;7.70;;
12469;SDS011;36499;46.484;13.832;2023-06-19T09:01:37;7.83;;;7.23;;
12469;SDS011;36499;46.484;13.832;2023-06-19T09:04:08;8.70;;;7.80;;
12469;SDS011;36499;46.484;13.832;2023-06-19T09:06:45;8.40;;;7.17;;
12469;SDS011;36499;46.484;13.832;2023-06-19T09:09:16;8.70;;;7.80;;
12469;SDS011;36499;46.484;13.832;2023-06-19T09:11:56;7.77;;;7.07;;
12469;SDS011;36499;46.484;13.832;2023-06-19T09:14:30;7.50;;;6.80;;
12469;SDS011;36499;46.484;13.832;2023-06-19T09:17:00;7.90;;;7.10;;
12469;SDS011;36499;46.484;13.832;2023-06-19T09:19:29;7.90;;;7.10;;
12469;SDS011;36499;46.484;13.832;2023-06-19T09:22:01;7.43;;;6.77;;
12469;SDS011;36499;46.484;13.832;2023-06-19T09:24:33;9.97;;;7.07;;
12469;SDS011;36499;46.484;13.832;2023-06-19T09:27:07;8.57;;;7.13;;
12469;SDS011;36499;46.484;13.832;2023-06-19T09:29:38;8.03;;;7.20;;
12469;SDS011;36499;46.484;13.832;2023-06-19T09:32:17;7.73;;;6.83;;
12469;SDS011;36499;46.484;13.832;2023-06-19T09:34:46;8.23;;;6.80;;
12469;SDS011;36499;46.484;13.832;2023-06-19T09:37:16;7.07;;;6.43;;
12469;SDS011;36499;46.484;13.832;2023-06-19T09:39:48;7.50;;;6.80;;
12469;SDS011;36499;46.484;13.832;2023-06-19T09:42:20;7.93;;;7.10;;
12469;SDS011;36499;46.484;13.832;2023-06-19T09:44:53;7.87;;;7.03;;
12469;SDS011;36499;46.484;13.832;2023-06-19T09:47:29;7.43;;;6.83;;
12469;SDS011;36499;46.484;13.832;2023-06-19T09:49:58;8.50;;;7.00;;
12469;SDS011;36499;46.484;13.832;2023-06-19T09:52:27;9.73;;;6.80;;
12469;SDS011;36499;46.484;13.832;2023-06-19T09:54:55;8.03;;;7.13;;
12469;SDS011;36499;46.484;13.832;2023-06-19T09:57:23;7.17;;;6.47;;
12469;SDS011;36499;46.484;13.832;2023-06-19T09:59:51;8.53;;;6.87;;
12469;SDS011;36499;46.484;13.832;2023-06-19T10:02:22;7.63;;;6.97;;
12469;SDS011;36499;46.484;13.832;2023-06-19T10:04:54;7.20;;;6.50;;
12469;SDS011;36499;46.484;13.832;2023-06-19T10:07:26;8.13;;;7.00;;
12469;SDS011;36499;46.484;13.832;2023-06-19T10:10:01;7.80;;;7.00;;
12469;SDS011;36499;46.484;13.832;2023-06-19T10:12:37;7.90;;;7.10;;
12469;SDS011;36499;46.484;13.832;2023-06-19T10:15:16;7.23;;;6.53;;
12469;SDS011;36499;46.484;13.832;2023-06-19T10:17:47;7.53;;;6.60;;
12469;SDS011;36499;46.484;13.832;2023-06-19T10:20:25;7.87;;;6.50;;
12469;SDS011;36499;46.484;13.832;2023-06-19T10:22:57;8.77;;;6.50;;
12469;SDS011;36499;46.484;13.832;2023-06-19T10:25:29;8.03;;;6.33;;
12469;SDS011;36499;46.484;13.832;2023-06-19T10:27:59;8.47;;;6.30;;
12469;SDS011;36499;46.484;13.832;2023-06-19T10:30:27;8.17;;;5.97;;
12469;SDS011;36499;46.484;13.832;2023-06-19T10:32:55;7.13;;;6.17;;
12469;SDS011;36499;46.484;13.832;2023-06-19T10:35:24;6.53;;;5.97;;
12469;SDS011;36499;46.484;13.832;2023-06-19T10:37:51;6.80;;;5.83;;
12469;SDS011;36499;46.484;13.832;2023-06-19T10:40:18;7.73;;;6.93;;
12469;SDS011;36499;46.484;13.832;2023-06-19T10:42:45;9.37;;;7.23;;
12469;SDS011;36499;46.484;13.832;2023-06-19T10:45:13;8.97;;;7.20;;
12469;SDS011;36499;46.484;13.832;2023-06-19T10:47:45;7.27;;;6.60;;
12469;SDS011;36499;46.484;13.832;2023-06-19T10:50:12;7.53;;;6.77;;
12469;SDS011;36499;46.484;13.832;2023-06-19T10:52:42;7.50;;;6.90;;
12469;SDS011;36499;46.484;13.832;2023-06-19T10:55:11;12.90;;;7.67;;
12469;SDS011;36499;46.484;13.832;2023-06-19T10:57:39;8.17;;;7.07;;
12469;SDS011;36499;46.484;13.832;2023-06-19T11:00:10;8.63;;;7.53;;
12469;SDS011;36499;46.484;13.832;2023-06-19T11:02:48;7.50;;;6.77;;
12469;SDS011;36499;46.484;13.832;2023-06-19T11:05:16;7.70;;;6.90;;
12469;SDS011;36499;46.484;13.832;2023-06-19T11:07:51;10.73;;;7.20;;
12469;SDS011;36499;46.484;13.832;2023-06-19T11:10:20;11.17;;;7.10;;
12469;SDS011;36499;46.484;13.832;2023-06-19T11:12:49;9.93;;;7.30;;
12469;SDS011;36499;46.484;13.832;2023-06-19T11:15:27;12.27;;;7.23;;
12469;SDS011;36499;46.484;13.832;2023-06-19T11:17:55;7.10;;;6.50;;
12469;SDS011;36499;46.484;13.832;2023-06-19T11:20:23;9.73;;;7.27;;
12469;SDS011;36499;46.484;13.832;2023-06-19T11:22:55;8.23;;;7.10;;
12469;SDS011;36499;46.484;13.832;2023-06-19T11:25:34;11.50;;;7.57;;
12469;SDS011;36499;46.484;13.832;2023-06-19T11:28:02;11.63;;;7.43;;
12469;SDS011;36499;46.484;13.832;2023-06-19T11:30:30;8.47;;;7.67;;
12469;SDS011;36499;46.484;13.832;2023-06-19T11:33:00;7.57;;;6.87;;
12469;SDS011;36499;46.484;13.832;2023-06-19T11:35:32;8.27;;;7.47;;
12469;SDS011;36499;46.484;13.832;2023-06-19T11:38:02;8.27;;;7.40;;
12469;SDS011;36499;46.484;13.832;2023-06-19T11:40:38;7.87;;;7.17;;
12469;SDS011;36499;46.484;13.832;2023-06-19T11:43:06;8.60;;;7.80;;
12469;SDS011;36499;46.484;13.832;2023-06-19T11:45:33;8.50;;;7.33;;
12469;SDS011;36499;46.484;13.832;2023-06-19T11:48:12;7.90;;;7.20;;
12469;SDS011;36499;46.484;13.832;2023-06-19T11:50:39;11.43;;;7.87;;
12469;SDS011;36499;46.484;13.832;2023-06-19T11:53:08;7.83;;;7.03;;
12469;SDS011;36499;46.484;13.832;2023-06-19T11:55:35;8.07;;;7.27;;
12469;SDS011;36499;46.484;13.832;2023-06-19T11:58:02;7.70;;;6.50;;
12469;SDS011;36499;46.484;13.832;2023-06-19T12:00:29;9.70;;;7.10;;
12469;SDS011;36499;46.484;13.832;2023-06-19T12:02:56;8.60;;;7.60;;
12469;SDS011;36499;46.484;13.832;2023-06-19T12:05:23;9.07;;;8.17;;
12469;SDS011;36499;46.484;13.832;2023-06-19T12:07:53;9.53;;;7.63;;
12469;SDS011;36499;46.484;13.832;2023-06-19T12:10:22;9.10;;;7.60;;
12469;SDS011;36499;46.484;13.832;2023-06-19T12:12:49;8.53;;;7.73;;
12469;SDS011;36499;46.484;13.832;2023-06-19T12:15:16;8.20;;;7.40;;
12469;SDS011;36499;46.484;13.832;2023-06-19T12:17:45;7.13;;;6.43;;
12469;SDS011;36499;46.484;13.832;2023-06-19T12:20:12;9.97;;;6.40;;
12469;SDS011;36499;46.484;13.832;2023-06-19T12:22:39;7.13;;;6.43;;
12469;SDS011;36499;46.484;13.832;2023-06-19T12:25:07;7.10;;;6.50;;
12469;SDS011;36499;46.484;13.832;2023-06-19T12:27:37;9.73;;;7.10;;
12469;SDS011;36499;46.484;13.832;2023-06-19T12:30:05;8.50;;;6.60;;
12469;SDS011;36499;46.484;13.832;2023-06-19T12:32:39;7.30;;;6.70;;
12469;SDS011;36499;46.484;13.832;2023-06-19T12:35:07;8.57;;;7.03;;
12469;SDS011;36499;46.484;13.832;2023-06-19T12:37:35;8.70;;;7.70;;
12469;SDS011;36499;46.484;13.832;2023-06-19T12:40:02;8.90;;;8.00;;
12469;SDS011;36499;46.484;13.832;2023-06-19T12:42:33;10.40;;;7.77;;
12469;SDS011;36499;46.484;13.832;2023-06-19T12:45:02;8.73;;;7.72;;
12469;SDS011;36499;46.484;13.832;2023-06-19T12:47:30;8.20;;;7.40;;
12469;SDS011;36499;46.484;13.832;2023-06-19T12:49:58;8.77;;;7.87;;
12469;SDS011;36499;46.484;13.832;2023-06-19T12:52:25;10.20;;;7.93;;
12469;SDS011;36499;46.484;13.832;2023-06-19T12:54:53;9.23;;;7.50;;
12469;SDS011;36499;46.484;13.832;2023-06-19T12:57:20;8.03;;;7.23;;
12469;SDS011;36499;46.484;13.832;2023-06-19T12:59:47;9.30;;;8.13;;
12469;SDS011;36499;46.484;13.832;2023-06-19T13:02:15;9.43;;;7.87;;
12469;SDS011;36499;46.484;13.832;2023-06-19T13:04:42;8.17;;;7.37;;
12469;SDS011;36499;46.484;13.832;2023-06-19T13:07:09;8.13;;;7.37;;
12469;SDS011;36499;46.484;13.832;2023-06-19T13:09:37;8.83;;;7.50;;
12469;SDS011;36499;46.484;13.832;2023-06-19T13:12:05;7.50;;;6.53;;
12469;SDS011;36499;46.484;13.832;2023-06-19T13:14:33;7.70;;;6.90;;
12469;SDS011;36499;46.484;13.832;2023-06-19T13:17:00;8.50;;;7.70;;
12469;SDS011;36499;46.484;13.832;2023-06-19T13:19:28;7.83;;;6.77;;
12469;SDS011;36499;46.484;13.832;2023-06-19T13:21:55;7.83;;;7.00;;
12469;SDS011;36499;46.484;13.832;2023-06-19T13:24:22;7.53;;;6.77;;
12469;SDS011;36499;46.484;13.832;2023-06-19T13:26:51;10.60;;;7.40;;
12469;SDS011;36499;46.484;13.832;2023-06-19T13:29:18;7.57;;;6.87;;
12469;SDS011;36499;46.484;13.832;2023-06-19T13:31:45;8.90;;;7.17;;
12469;SDS011;36499;46.484;13.832;2023-06-19T13:34:12;7.10;;;6.50;;
12469;SDS011;36499;46.484;13.832;2023-06-19T13:36:41;7.83;;;7.03;;
12469;SDS011;36499;46.484;13.832;2023-06-19T13:39:08;8.13;;;6.60;;
12469;SDS011;36499;46.484;13.832;2023-06-19T13:41:36;8.23;;;6.40;;
12469;SDS011;36499;46.484;13.832;2023-06-19T13:44:03;6.93;;;6.33;;
12469;SDS011;36499;46.484;13.832;2023-06-19T13:46:30;9.43;;;6.23;;
12469;SDS011;36499;46.484;13.832;2023-06-19T13:48:58;7.00;;;6.33;;
12469;SDS011;36499;46.484;13.832;2023-06-19T13:51:26;8.77;;;6.97;;
12469;SDS011;36499;46.484;13.832;2023-06-19T13:53:54;8.60;;;6.20;;
12469;SDS011;36499;46.484;13.832;2023-06-19T13:56:21;7.70;;;6.90;;
12469;SDS011;36499;46.484;13.832;2023-06-19T13:58:49;7.97;;;6.77;;
12469;SDS011;36499;46.484;13.832;2023-06-19T14:01:16;8.10;;;7.40;;
12469;SDS011;36499;46.484;13.832;2023-06-19T14:03:43;9.90;;;7.30;;
12469;SDS011;36499;46.484;13.832;2023-06-19T14:06:10;7.40;;;6.70;;
12469;SDS011;36499;46.484;13.832;2023-06-19T14:08:38;7.97;;;7.27;;
12469;SDS011;36499;46.484;13.832;2023-06-19T14:11:07;7.67;;;6.97;;
12469;SDS011;36499;46.484;13.832;2023-06-19T14:13:34;8.60;;;7.80;;
12469;SDS011;36499;46.484;13.832;2023-06-19T14:16:01;8.90;;;7.00;;
12469;SDS011;36499;46.484;13.832;2023-06-19T14:18:28;9.87;;;7.00;;
12469;SDS011;36499;46.484;13.832;2023-06-19T14:20:56;8.33;;;7.53;;
12469;SDS011;36499;46.484;13.832;2023-06-19T14:23:23;7.90;;;7.20;;
12469;SDS011;36499;46.484;13.832;2023-06-19T14:25:50;8.67;;;7.00;;
12469;SDS011;36499;46.484;13.832;2023-06-19T14:28:18;9.50;;;7.60;;
12469;SDS011;36499;46.484;13.832;2023-06-19T14:30:45;7.30;;;6.60;;
12469;SDS011;36499;46.484;13.832;2023-06-19T14:33:13;9.13;;;6.63;;
12469;SDS011;36499;46.484;13.832;2023-06-19T14:35:40;8.00;;;6.93;;
12469;SDS011;36499;46.484;13.832;2023-06-19T14:38:10;7.97;;;7.20;;
12469;SDS011;36499;46.484;13.832;2023-06-19T14:40:38;9.20;;;7.50;;
12469;SDS011;36499;46.484;13.832;2023-06-19T14:43:05;9.37;;;7.17;;